Gainesville, FL (32601)

2:23 AM EDT on June 30, 2015 (GMT -0400)
The Duckpond | | Change Station
CLOSE
Current Station
Personal Weather Station
Location: Gainesville, FL
Elevation: 124 ft
Nearby Weather Stations

Elev 124 ft 29.66 °N, 82.32 °W | Updated 7 seconds ago

Clear
Clear
74.5 °F
Feels Like 74 °F
N
0.0
Wind Variable Wind from SE
Gusts 0.0 mph

Today
High -- | Low -- °F
--% Chance of Precip.
Yesterday
High -- | Low -- °F
Precip. -- in
6:32 AM 8:33 PM
Waxing Gibbous, 96% visible
Pressure 30.06 in
Visibility 3.0 miles
Clouds Clear
Heat Index 74 °F
Dew Point 70 °F
Humidity 85%
Rainfall in
Snow Depth Not available.
UV 0 out of 12
Pollen .50 out of 12
Air Quality Not available.
Flu Activity Sporadic
SPECI KGNV 300400Z AUTO 00000KT 3SM BR CLR 23/23 A3006 RMK AO2 T02330228 $

More Conditions Fewer Conditions

Pressure 30.06 in
Visibility 3.0 miles
Clouds Clear
Heat Index 74 °F
Dew Point 70 °F
Humidity 85%
Rainfall in
Snow Depth Not available.
UV 0 out of 12
Pollen .50 out of 12
Air Quality Not available.
Flu Activity Sporadic
SPECI KGNV 300400Z AUTO 00000KT 3SM BR CLR 23/23 A3006 RMK AO2 T02330228 $

More Conditions Fewer Conditions

10-Day Weather Forecast

×

Almanac

Astronomy

Jun. 30, 2015 Rise Set
Actual Time
Civil Twilight
Nautical Twilight
Astronomical Twilight
Moon
Length of Visible Light
Length of Day
Tomorrow will be .
, % of the Moon is Illuminated

Today's Extremes

State Highs State Lows

Community

WunderPhotos

Upload Photos

1,833,971 photos uploaded!

WunderBlogs® & News

Nearby

Air Quality

  Air Quality AQ Index Pollutant
Not available.

Snow Depth

Station Depth Elevation

Earthquake Activity

City Distance Mag. Time & Date
Minimum magnitude displayed is 2.5.

Coastal Water Temperatures

Place Temperature

Stations

Nearby Weather Stations

Station Location Temp. Windchill Dew Point Humidity Wind Precip. Elev Updated Type